createdAt,value
2023-05-01T00:02:34.242Z,7.95
2023-05-01T00:05:21.568Z,7.55
2023-05-01T00:08:09.172Z,8.20
2023-05-01T00:11:02.215Z,7.57
2023-05-01T00:13:51.803Z,8.45
2023-05-01T00:16:39.074Z,7.78
2023-05-01T00:19:26.286Z,9.27
2023-05-01T00:22:15.814Z,8.68
2023-05-01T00:25:03.885Z,8.50
2023-05-01T00:27:51.042Z,7.55
2023-05-01T00:30:38.334Z,8.40
2023-05-01T00:33:27.966Z,8.07
2023-05-01T00:36:15.116Z,8.35
2023-05-01T00:39:04.509Z,8.70
2023-05-01T00:41:54.986Z,8.40
2023-05-01T00:44:42.197Z,7.00
2023-05-01T00:47:29.357Z,7.55
2023-05-01T00:50:17.076Z,6.68
2023-05-01T00:53:05.746Z,5.40
2023-05-01T00:55:56.488Z,6.13
2023-05-01T00:58:47.021Z,6.15
2023-05-01T01:04:22.419Z,5.53
2023-05-01T01:07:25.175Z,6.38
2023-05-01T01:10:41.847Z,6.10
2023-05-01T01:13:56.478Z,6.60
2023-05-01T01:17:03.720Z,6.13
2023-05-01T01:20:07.319Z,6.72
2023-05-01T01:23:16.791Z,6.50
2023-05-01T01:26:09.857Z,5.53
2023-05-01T01:29:12.026Z,5.38
2023-05-01T01:32:37.803Z,5.95
2023-05-01T01:35:27.408Z,5.55
2023-05-01T01:38:19.652Z,5.47
2023-05-01T01:41:31.258Z,5.97
2023-05-01T01:44:42.693Z,6.82
2023-05-01T01:47:33.117Z,7.82
2023-05-01T01:50:26.835Z,9.25
2023-05-01T01:53:18.681Z,9.57
2023-05-01T01:56:08.155Z,10.50
2023-05-01T01:58:56.088Z,11.27
2023-05-01T02:01:44.767Z,10.93
2023-05-01T02:04:32.944Z,11.20
2023-05-01T02:07:21.849Z,10.35
2023-05-01T02:10:14.114Z,9.95
2023-05-01T02:13:03.259Z,10.15
2023-05-01T02:15:53.193Z,9.77
2023-05-01T02:18:41.338Z,9.73
2023-05-01T02:21:31.185Z,8.77
2023-05-01T02:24:22.684Z,8.63
2023-05-01T02:27:17.588Z,7.88
2023-05-01T02:30:08.288Z,7.40
2023-05-01T02:32:57.522Z,6.40
2023-05-01T02:35:47.406Z,7.13
2023-05-01T02:38:35.520Z,6.97
2023-05-01T02:41:27.889Z,6.90
2023-05-01T02:44:16.348Z,7.03
2023-05-01T02:47:05.213Z,7.40
2023-05-01T02:50:01.784Z,7.75
2023-05-01T02:52:49.906Z,8.77
2023-05-01T02:55:38.233Z,7.55
2023-05-01T02:58:32.694Z,7.70
2023-05-01T03:01:20.773Z,7.78
2023-05-01T03:04:08.300Z,7.65
2023-05-01T03:06:57.904Z,7.30
2023-05-01T03:09:45.107Z,7.40
2023-05-01T03:12:32.249Z,8.27
2023-05-01T03:15:22.217Z,9.57
2023-05-01T03:18:11.720Z,9.38
2023-05-01T03:20:59.178Z,9.18
2023-05-01T03:23:46.980Z,9.18
2023-05-01T03:26:34.431Z,8.68
2023-05-01T03:29:23.964Z,8.75
2023-05-01T03:32:13.685Z,9.57
2023-05-01T03:35:00.950Z,9.38
2023-05-01T03:37:48.109Z,9.25
2023-05-01T03:40:35.499Z,8.68
2023-05-01T03:43:23.919Z,9.23
2023-05-01T03:46:13.628Z,9.20
2023-05-01T03:49:00.866Z,10.50
2023-05-01T03:51:48.134Z,10.13
2023-05-01T03:54:35.672Z,10.15
2023-05-01T03:57:23.431Z,10.02
2023-05-01T04:00:13.760Z,10.15
2023-05-01T04:03:04.781Z,10.43
2023-05-01T04:05:55.593Z,10.73
2023-05-01T04:08:43.150Z,11.55
2023-05-01T04:11:32.436Z,10.27
2023-05-01T04:14:21.725Z,10.15
2023-05-01T04:17:09.091Z,10.95
2023-05-01T04:19:56.602Z,10.80
2023-05-01T04:22:43.938Z,10.13
2023-05-01T04:25:31.276Z,10.73
2023-05-01T04:28:18.402Z,10.10
2023-05-01T04:31:07.713Z,10.48
2023-05-01T04:33:57.223Z,9.80
2023-05-01T04:36:44.449Z,9.27
2023-05-01T04:39:34.046Z,9.73
2023-05-01T04:42:21.220Z,10.20
2023-05-01T04:45:13.474Z,9.50
2023-05-01T04:48:00.756Z,9.68
2023-05-01T04:50:50.080Z,10.45
2023-05-01T04:53:37.237Z,10.55
2023-05-01T04:56:28.634Z,11.20
2023-05-01T04:59:15.782Z,11.70
2023-05-01T05:02:03.027Z,12.95
2023-05-01T05:04:54.181Z,12.25
2023-05-01T05:07:44.101Z,13.63
2023-05-01T05:10:32.050Z,13.23
2023-05-01T05:13:21.284Z,13.05
2023-05-01T05:16:13.401Z,13.27
2023-05-01T05:19:00.936Z,13.65
2023-05-01T05:21:50.432Z,13.43
2023-05-01T05:24:39.820Z,14.02
2023-05-01T05:27:26.984Z,13.85
2023-05-01T05:30:14.289Z,14.38
2023-05-01T05:33:01.614Z,15.48
2023-05-01T05:35:50.729Z,14.25
2023-05-01T05:38:38.677Z,14.25
2023-05-01T05:41:28.354Z,14.82
2023-05-01T05:44:17.696Z,14.93
2023-05-01T05:47:05.129Z,16.05
2023-05-01T05:49:56.044Z,16.13
2023-05-01T05:52:43.423Z,16.80
2023-05-01T05:55:30.602Z,17.15
2023-05-01T05:58:20.152Z,15.52
2023-05-01T06:01:09.638Z,14.73
2023-05-01T06:03:58.950Z,12.80
2023-05-01T06:06:46.175Z,11.70
2023-05-01T06:09:33.482Z,10.70
2023-05-01T06:12:20.634Z,10.43
2023-05-01T06:15:10.069Z,9.93
2023-05-01T06:17:57.464Z,10.68
2023-05-01T06:20:44.877Z,11.18
2023-05-01T06:23:33.938Z,11.15
2023-05-01T06:26:21.724Z,11.30
2023-05-01T06:29:11.658Z,11.48
2023-05-01T06:31:58.864Z,10.63
2023-05-01T06:34:46.024Z,11.55
2023-05-01T06:37:35.914Z,11.88
2023-05-01T06:40:23.163Z,11.43
2023-05-01T06:43:10.312Z,11.88
2023-05-01T06:45:57.715Z,12.70
2023-05-01T06:48:44.781Z,11.90
2023-05-01T06:51:32.234Z,10.82
2023-05-01T06:54:23.809Z,12.00
2023-05-01T06:57:13.937Z,11.90
2023-05-01T07:00:01.027Z,12.23
2023-05-01T07:02:48.327Z,12.50
2023-05-01T07:05:35.683Z,11.93
2023-05-01T07:08:24.452Z,12.32
2023-05-01T07:11:22.027Z,11.35
2023-05-01T07:14:09.461Z,11.32
2023-05-01T07:16:56.732Z,11.80
2023-05-01T07:19:44.132Z,12.55
2023-05-01T07:22:31.278Z,12.63
2023-05-01T07:25:18.610Z,11.88
2023-05-01T07:28:06.388Z,11.18
2023-05-01T07:30:53.553Z,11.32
2023-05-01T07:33:41.883Z,11.15
2023-05-01T07:36:33.487Z,9.77
2023-05-01T07:39:20.829Z,10.90
2023-05-01T07:42:08.125Z,11.23
2023-05-01T07:44:55.354Z,11.35
2023-05-01T07:47:42.959Z,11.25
2023-05-01T07:50:30.386Z,10.40
2023-05-01T07:53:17.579Z,10.45
2023-05-01T07:56:07.634Z,9.73
2023-05-01T07:58:55.020Z,9.95
2023-05-01T08:01:42.698Z,11.40
2023-05-01T08:04:30.008Z,9.85
2023-05-01T08:07:20.086Z,9.98
2023-05-01T08:10:07.728Z,9.85
2023-05-01T08:12:55.233Z,9.45
2023-05-01T08:15:43.148Z,9.55
2023-05-01T08:18:31.260Z,9.30
2023-05-01T08:21:18.469Z,9.40
2023-05-01T08:24:09.864Z,9.65
2023-05-01T08:26:57.040Z,9.15
2023-05-01T08:29:44.756Z,8.05
2023-05-01T08:32:34.596Z,8.05
2023-05-01T08:35:24.337Z,8.23
2023-05-01T08:38:14.549Z,8.88
2023-05-01T08:41:03.587Z,7.88
2023-05-01T08:43:50.999Z,6.78
2023-05-01T08:47:08.490Z,7.55
2023-05-01T08:49:57.444Z,6.82
2023-05-01T08:52:46.797Z,8.10
2023-05-01T08:55:36.309Z,7.68
2023-05-01T08:58:27.146Z,7.20
2023-05-01T09:01:16.367Z,7.63
2023-05-01T09:04:05.046Z,7.90
2023-05-01T09:06:55.265Z,6.60
2023-05-01T09:09:43.705Z,7.10
2023-05-01T09:12:35.439Z,6.25
2023-05-01T09:15:28.855Z,5.87
2023-05-01T09:18:16.659Z,6.25
2023-05-01T09:21:04.950Z,6.18
2023-05-01T09:23:54.923Z,5.80
2023-05-01T09:26:47.826Z,5.40
2023-05-01T09:29:54.125Z,5.32
2023-05-01T09:32:44.514Z,5.35
2023-05-01T09:35:36.234Z,5.90
2023-05-01T09:38:30.919Z,4.70
2023-05-01T09:41:21.033Z,5.65
2023-05-01T09:44:25.267Z,5.78
2023-05-01T09:47:23.090Z,4.90
2023-05-01T09:50:11.488Z,5.97
2023-05-01T09:53:03.347Z,5.82
2023-05-01T09:56:03.389Z,5.15
2023-05-01T09:58:54.426Z,5.30
2023-05-01T10:01:46.803Z,5.00
2023-05-01T10:04:37.736Z,4.88
2023-05-01T10:07:26.107Z,5.20
2023-05-01T10:10:21.455Z,5.75
2023-05-01T10:13:19.204Z,5.80
2023-05-01T10:16:26.910Z,5.80
2023-05-01T10:19:17.641Z,5.85
2023-05-01T10:22:07.345Z,5.65
2023-05-01T10:24:55.308Z,5.65
2023-05-01T10:27:43.049Z,5.10
2023-05-01T10:30:34.529Z,5.05
2023-05-01T10:33:23.248Z,5.53
2023-05-01T10:36:19.521Z,4.95
2023-05-01T10:39:07.165Z,4.55
2023-05-01T10:42:14.268Z,5.45
2023-05-01T10:45:39.427Z,4.85
2023-05-01T10:48:42.631Z,5.18
2023-05-01T10:51:29.974Z,7.13
2023-05-01T10:54:21.310Z,8.00
2023-05-01T10:57:08.722Z,8.27
2023-05-01T11:00:05.426Z,6.88
2023-05-01T11:02:52.838Z,9.18
2023-05-01T11:06:01.115Z,11.38
2023-05-01T11:08:48.974Z,6.85
2023-05-01T11:11:36.304Z,7.75
2023-05-01T11:14:25.846Z,10.52
2023-05-01T11:17:38.034Z,7.57
2023-05-01T11:20:25.288Z,8.10
2023-05-01T11:23:17.935Z,10.43
2023-05-01T11:28:57.961Z,9.70
2023-05-01T11:31:49.030Z,8.35
2023-05-01T11:34:39.782Z,8.55
2023-05-01T11:37:45.405Z,8.43
2023-05-01T11:40:35.126Z,7.57
2023-05-01T11:43:23.320Z,6.90
2023-05-01T11:46:12.061Z,5.90
2023-05-01T11:49:01.608Z,5.90
2023-05-01T11:51:58.347Z,5.18
2023-05-01T11:54:48.808Z,4.82
2023-05-01T11:57:50.422Z,4.45
2023-05-01T12:00:39.957Z,5.90
2023-05-01T12:03:27.579Z,4.97
2023-05-01T12:06:15.286Z,4.38
2023-05-01T12:09:03.035Z,4.22
2023-05-01T12:11:55.062Z,4.28
2023-05-01T12:14:42.646Z,4.53
2023-05-01T12:17:35.064Z,3.95
2023-05-01T12:20:55.496Z,4.07
2023-05-01T12:23:42.724Z,4.40
2023-05-01T12:26:29.987Z,4.88
2023-05-01T12:29:17.136Z,3.60
2023-05-01T12:32:04.591Z,4.20
2023-05-01T12:34:52.597Z,5.25
2023-05-01T12:37:40.082Z,5.35
2023-05-01T12:40:27.991Z,4.88
2023-05-01T12:43:15.266Z,4.82
2023-05-01T12:46:03.664Z,5.00
2023-05-01T12:48:51.874Z,4.95
2023-05-01T12:51:45.733Z,4.30
2023-05-01T12:54:34.616Z,4.90
2023-05-01T12:57:21.835Z,5.47
2023-05-01T13:00:13.289Z,5.97
2023-05-01T13:03:04.885Z,6.50
2023-05-01T13:06:00.340Z,6.07
2023-05-01T13:08:50.262Z,6.50
2023-05-01T13:11:41.263Z,9.32
2023-05-01T13:14:41.978Z,12.18
2023-05-01T13:17:32.400Z,12.15
2023-05-01T13:20:27.546Z,11.35
2023-05-01T13:23:15.571Z,12.68
2023-05-01T13:26:07.276Z,14.38
2023-05-01T13:28:55.569Z,14.80
2023-05-01T13:31:44.650Z,15.55
2023-05-01T13:34:34.298Z,15.00
2023-05-01T13:37:22.508Z,16.52
2023-05-01T13:40:10.742Z,14.98
2023-05-01T13:42:58.060Z,16.40
2023-05-01T13:45:45.295Z,16.33
2023-05-01T13:48:32.538Z,15.57
2023-05-01T13:51:25.049Z,17.67
2023-05-01T13:57:01.388Z,14.75
2023-05-01T13:59:49.289Z,15.18
2023-05-01T14:02:44.077Z,13.20
2023-05-01T14:05:31.396Z,12.60
2023-05-01T14:08:26.126Z,13.20
2023-05-01T14:11:14.416Z,14.50
2023-05-01T14:14:04.205Z,12.05
2023-05-01T14:16:52.396Z,12.70
2023-05-01T14:19:42.653Z,10.88
2023-05-01T14:22:34.483Z,10.13
2023-05-01T14:25:31.373Z,10.60
2023-05-01T14:28:19.012Z,10.52
2023-05-01T14:31:06.732Z,11.40
2023-05-01T14:34:00.719Z,12.52
2023-05-01T14:36:47.995Z,11.90
2023-05-01T14:39:42.013Z,13.05
2023-05-01T14:42:32.565Z,12.38
2023-05-01T14:45:20.042Z,15.10
2023-05-01T14:48:07.725Z,13.05
2023-05-01T14:50:55.477Z,6.72
2023-05-01T14:53:45.212Z,3.58
2023-05-01T14:56:32.723Z,3.03
2023-05-01T14:59:20.090Z,3.75
2023-05-01T15:02:07.668Z,3.85
2023-05-01T15:04:55.175Z,3.70
2023-05-01T15:07:42.612Z,4.88
2023-05-01T15:10:31.893Z,5.38
2023-05-01T15:13:19.957Z,5.53
2023-05-01T15:16:08.392Z,5.35
2023-05-01T15:18:58.517Z,4.53
2023-05-01T15:21:47.867Z,4.95
2023-05-01T15:24:35.149Z,6.13
2023-05-01T15:27:22.487Z,5.65
2023-05-01T15:30:10.373Z,5.57
2023-05-01T15:33:00.330Z,6.13
2023-05-01T15:35:48.820Z,4.53
2023-05-01T15:38:36.225Z,4.82
2023-05-01T15:41:23.881Z,4.53
2023-05-01T15:44:11.187Z,2.83
2023-05-01T15:46:58.536Z,2.90
2023-05-01T15:49:45.970Z,3.10
2023-05-01T15:52:49.372Z,2.72
2023-05-01T15:55:37.321Z,2.95
2023-05-01T15:58:26.535Z,3.08
2023-05-01T16:01:14.277Z,2.00
2023-05-01T16:04:04.843Z,2.95
2023-05-01T16:06:52.436Z,1.77
2023-05-01T16:09:39.861Z,2.05
2023-05-01T16:12:30.908Z,2.15
2023-05-01T16:15:18.906Z,1.90
2023-05-01T16:18:09.678Z,2.00
2023-05-01T16:20:58.784Z,2.50
2023-05-01T16:23:46.190Z,2.15
2023-05-01T16:26:35.996Z,2.47
2023-05-01T16:29:23.568Z,2.72
2023-05-01T16:32:14.637Z,2.85
2023-05-01T16:35:03.809Z,2.80
2023-05-01T16:37:51.216Z,2.60
2023-05-01T16:40:39.085Z,4.15
2023-05-01T16:43:28.439Z,5.00
2023-05-01T16:46:17.889Z,4.45
2023-05-01T16:49:08.265Z,3.85
2023-05-01T16:51:57.380Z,5.38
2023-05-01T16:54:44.970Z,6.38
2023-05-01T16:57:32.442Z,5.72
2023-05-01T17:00:22.354Z,6.32
2023-05-01T17:03:09.847Z,5.45
2023-05-01T17:06:00.256Z,4.90
2023-05-01T17:08:47.810Z,5.28
2023-05-01T17:11:35.212Z,5.65
2023-05-01T17:14:23.241Z,6.15
2023-05-01T17:17:13.115Z,6.68
2023-05-01T17:20:01.921Z,6.45
2023-05-01T17:22:49.730Z,6.28
2023-05-01T17:25:36.993Z,6.07
2023-05-01T17:28:24.519Z,6.50
2023-05-01T17:31:11.970Z,7.68
2023-05-01T17:33:59.576Z,8.73
2023-05-01T17:36:47.765Z,8.95
2023-05-01T17:39:35.511Z,8.38
2023-05-01T17:42:24.966Z,8.35
2023-05-01T17:45:12.888Z,8.68
2023-05-01T17:48:00.966Z,8.18
2023-05-01T17:50:48.951Z,9.38
2023-05-01T17:53:37.910Z,9.80
2023-05-01T17:56:26.029Z,10.63
2023-05-01T17:59:13.776Z,11.73
2023-05-01T18:02:01.415Z,12.02
2023-05-01T18:04:51.820Z,13.32
2023-05-01T18:07:41.549Z,11.27
2023-05-01T18:10:31.501Z,10.02
2023-05-01T18:13:20.566Z,11.45
2023-05-01T18:16:08.783Z,10.80
2023-05-01T18:18:58.628Z,10.60
2023-05-01T18:21:46.242Z,11.00
2023-05-01T18:24:34.039Z,10.88
2023-05-01T18:27:21.838Z,10.00
2023-05-01T18:30:10.054Z,12.05
2023-05-01T18:32:57.887Z,10.35
2023-05-01T18:35:45.574Z,10.05
2023-05-01T18:38:33.609Z,9.50
2023-05-01T18:41:21.635Z,9.10
2023-05-01T18:44:10.110Z,9.25
2023-05-01T18:46:57.598Z,9.02
2023-05-01T18:49:45.137Z,10.02
2023-05-01T18:52:33.144Z,11.18
2023-05-01T18:55:20.780Z,11.27
2023-05-01T18:58:11.184Z,11.73
2023-05-01T19:00:58.854Z,12.27
2023-05-01T19:03:46.540Z,14.32
2023-05-01T19:06:34.150Z,13.40
2023-05-01T19:09:21.918Z,13.52
2023-05-01T19:12:11.681Z,12.45
2023-05-01T19:14:59.554Z,12.00
2023-05-01T19:17:47.000Z,10.82
2023-05-01T19:20:34.538Z,10.45
2023-05-01T19:23:22.068Z,10.77
2023-05-01T19:26:10.622Z,9.45
2023-05-01T19:28:58.373Z,10.27
2023-05-01T19:31:46.025Z,9.20
2023-05-01T19:34:33.336Z,9.02
2023-05-01T19:37:21.148Z,9.07
2023-05-01T19:40:12.768Z,9.68
2023-05-01T19:43:00.634Z,9.82
2023-05-01T19:45:48.084Z,8.90
2023-05-01T19:48:35.988Z,9.00
2023-05-01T19:51:26.792Z,8.55
2023-05-01T19:54:14.376Z,8.07
2023-05-01T19:57:02.138Z,8.68
2023-05-01T19:59:53.987Z,9.13
2023-05-01T20:02:42.652Z,9.45
2023-05-01T20:05:32.850Z,8.40
2023-05-01T20:08:20.820Z,11.25
2023-05-01T20:11:08.322Z,11.75
2023-05-01T20:13:55.668Z,14.57
2023-05-01T20:16:43.306Z,14.43
2023-05-01T20:19:31.619Z,13.75
2023-05-01T20:22:19.333Z,11.85
2023-05-01T20:25:09.678Z,12.07
2023-05-01T20:27:57.368Z,16.30
2023-05-01T20:30:49.082Z,13.50
2023-05-01T20:33:39.059Z,10.73
2023-05-01T20:36:28.672Z,10.00
2023-05-01T20:39:16.198Z,10.30
2023-05-01T20:42:06.349Z,9.00
2023-05-01T20:44:53.912Z,10.00
2023-05-01T20:47:41.466Z,9.70
2023-05-01T20:50:31.426Z,9.82
2023-05-01T20:53:24.101Z,10.88
2023-05-01T20:59:00.618Z,9.82
2023-05-01T21:01:49.739Z,10.52
2023-05-01T21:04:38.216Z,10.63
2023-05-01T21:07:25.593Z,10.68
2023-05-01T21:10:14.823Z,9.85
2023-05-01T21:13:02.174Z,9.80
2023-05-01T21:15:49.441Z,9.85
2023-05-01T21:18:37.547Z,10.63
2023-05-01T21:21:27.753Z,10.43
2023-05-01T21:24:21.033Z,10.95
2023-05-01T21:27:08.296Z,10.20
2023-05-01T21:29:57.728Z,11.40
2023-05-01T21:32:45.512Z,11.73
2023-05-01T21:35:33.421Z,13.02
2023-05-01T21:38:20.861Z,14.40
2023-05-01T21:41:08.750Z,14.32
2023-05-01T21:43:57.403Z,15.10
2023-05-01T21:46:44.735Z,14.52
2023-05-01T21:49:32.788Z,15.90
2023-05-01T21:52:20.300Z,14.45
2023-05-01T21:55:12.265Z,12.00
2023-05-01T21:57:59.938Z,10.10
2023-05-01T22:00:47.401Z,10.02
2023-05-01T22:03:41.837Z,10.88
2023-05-01T22:06:32.514Z,10.40
2023-05-01T22:09:21.051Z,10.35
2023-05-01T22:12:08.268Z,10.80
2023-05-01T22:14:56.513Z,11.00
2023-05-01T22:17:44.648Z,10.48
2023-05-01T22:20:32.520Z,11.55
2023-05-01T22:23:19.874Z,12.90
2023-05-01T22:26:07.528Z,11.43
2023-05-01T22:28:57.549Z,12.25
2023-05-01T22:31:47.286Z,10.75
2023-05-01T22:34:36.900Z,12.68
2023-05-01T22:37:25.795Z,11.98
2023-05-01T22:40:13.118Z,11.52
2023-05-01T22:43:01.720Z,12.60
2023-05-01T22:45:51.240Z,12.13
2023-05-01T22:48:40.849Z,12.52
2023-05-01T22:51:28.494Z,11.98
2023-05-01T22:54:18.057Z,11.98
2023-05-01T22:57:05.493Z,12.18
2023-05-01T22:59:52.803Z,11.20
2023-05-01T23:02:40.137Z,11.55
2023-05-01T23:05:27.451Z,12.15
2023-05-01T23:08:14.672Z,12.27
2023-05-01T23:11:02.249Z,12.00
2023-05-01T23:13:52.877Z,13.70
2023-05-01T23:16:41.868Z,11.95
2023-05-01T23:19:31.702Z,13.40
2023-05-01T23:22:19.928Z,12.35
2023-05-01T23:25:08.078Z,12.70
2023-05-01T23:27:56.770Z,11.98
2023-05-01T23:30:45.128Z,13.00
2023-05-01T23:33:39.968Z,13.45
2023-05-01T23:36:28.795Z,14.40
2023-05-01T23:39:16.514Z,14.45
2023-05-01T23:42:06.753Z,14.52
2023-05-01T23:44:55.370Z,13.63
2023-05-01T23:47:42.764Z,14.25
2023-05-01T23:50:30.411Z,14.57
2023-05-01T23:53:17.570Z,15.05
2023-05-01T23:56:05.025Z,16.08
2023-05-01T23:58:52.202Z,15.55
